Time;durP1;ratioP1;P1;durP2;ratioP2;P2;SDS_P1;SDS_P2;PMS_P1;PMS_P2;Temp;Humidity;BMP_temperature;BMP_pressure;BME280_temperature;BME280_humidity;BME280_pressure;Samples;Min_cycle;Max_cycle;Signal;HPM_P1;HPM_P2
2022/05/28 00:01:47;;;;;;;18.52;6.53;;;;;;;21.33;71.03;94576.25;5076672;28;20208;-87
2022/05/28 00:04:23;;;;;;;13.77;6.90;;;;;;;21.25;71.23;94563.69;5080403;28;20336;-86
2022/05/28 00:06:58;;;;;;;14.38;6.18;;;;;;;21.25;71.40;94573.47;5076613;28;20201;-87
2022/05/28 00:09:31;;;;;;;16.75;5.90;;;;;;;21.26;70.92;94573.19;5070665;28;20638;-86
2022/05/28 00:12:05;;;;;;;14.45;6.32;;;;;;;21.22;71.03;94568.75;5069774;28;20200;-86
2022/05/28 00:14:36;;;;;;;21.25;6.93;;;;;;;21.21;71.08;94562.66;5067281;28;20205;-86
2022/05/28 00:17:10;;;;;;;13.20;6.03;;;;;;;21.16;71.71;94560.09;5064850;28;20212;-86
2022/05/28 00:19:50;;;;;;;14.40;6.20;;;;;;;21.10;72.44;94563.09;5065869;28;20197;-87
2022/05/28 00:22:25;;;;;;;16.13;6.38;;;;;;;21.11;71.98;94557.53;5069801;28;20213;-85
2022/05/28 00:25:01;;;;;;;15.05;6.93;;;;;;;20.98;73.04;94544.97;5070691;28;20201;-88
2022/05/28 00:27:30;;;;;;;19.70;7.10;;;;;;;21.02;73.52;94542.56;5066363;28;20664;-86
2022/05/28 00:30:07;;;;;;;16.10;7.15;;;;;;;20.98;73.45;94549.50;5069880;28;20198;-86
2022/05/28 00:32:42;;;;;;;21.75;7.65;;;;;;;20.94;73.41;94541.34;5081254;28;20196;-85
2022/05/28 00:35:21;;;;;;;18.73;8.07;;;;;;;20.91;73.54;94537.44;5073334;28;20667;-84
2022/05/28 00:37:51;;;;;;;18.42;7.45;;;;;;;20.84;73.73;94525.63;5074440;28;20205;-84
2022/05/28 00:40:32;;;;;;;19.30;7.80;;;;;;;20.65;74.42;94519.53;5067234;28;20787;-84
2022/05/28 00:43:04;;;;;;;19.13;9.35;;;;;;;20.59;74.55;94520.66;5064751;28;20312;-84
2022/05/28 00:45:44;;;;;;;25.45;8.98;;;;;;;20.52;75.35;94517.59;5065267;28;20204;-84
2022/05/28 00:48:17;;;;;;;18.40;8.30;;;;;;;20.58;76.27;94522.53;5067255;28;20652;-84
2022/05/28 00:50:48;;;;;;;23.50;9.95;;;;;;;20.53;75.83;94514.66;5061616;28;20667;-85
2022/05/28 00:53:21;;;;;;;18.52;8.70;;;;;;;20.54;76.42;94516.25;5067727;28;20201;-84
2022/05/28 00:55:57;;;;;;;24.45;9.23;;;;;;;20.60;76.24;94509.03;5068536;28;20215;-83
2022/05/28 00:58:28;;;;;;;16.83;9.30;;;;;;;20.56;76.34;94505.38;5074553;28;20204;-85
2022/05/28 01:01:03;;;;;;;16.55;7.88;;;;;;;20.53;76.34;94514.66;5073512;28;20209;-84
2022/05/28 01:03:47;;;;;;;18.38;8.65;;;;;;;20.56;76.72;94529.16;5075338;28;20204;-84
2022/05/28 01:06:26;;;;;;;15.73;7.30;;;;;;;20.42;77.44;94544.91;5071272;28;20288;-85
2022/05/28 01:09:06;;;;;;;12.40;5.82;;;;;;;20.17;78.33;94553.84;5072712;28;20288;-84
2022/05/28 01:11:42;;;;;;;9.93;6.05;;;;;;;20.09;78.51;94546.53;5070198;28;20207;-85
2022/05/28 01:14:25;;;;;;;12.50;5.68;;;;;;;19.97;79.05;94542.72;5073510;28;20193;-84
2022/05/28 01:17:05;;;;;;;8.68;5.10;;;;;;;20.10;78.31;94549.97;5068289;28;20229;-85
2022/05/28 01:19:49;;;;;;;12.52;5.35;;;;;;;20.08;78.12;94576.66;5065785;28;20205;-85
2022/05/28 01:22:31;;;;;;;18.42;5.65;;;;;;;19.92;78.82;94604.22;5069294;28;20200;-85
2022/05/28 01:25:12;;;;;;;10.68;5.85;;;;;;;19.82;79.39;94599.03;5065717;28;20201;-86
2022/05/28 01:27:52;;;;;;;11.13;5.07;;;;;;;19.60;80.44;94602.09;5065856;28;20205;-86
2022/05/28 01:30:25;;;;;;;9.77;5.60;;;;;;;19.61;80.49;94614.22;5066291;28;20262;-86
2022/05/28 01:33:03;;;;;;;10.77;6.35;;;;;;;19.46;81.40;94606.41;5066683;28;20221;-86
2022/05/28 01:35:43;;;;;;;14.73;6.45;;;;;;;19.26;82.10;94590.69;5067954;28;20209;-87
2022/05/28 01:38:18;;;;;;;12.95;6.22;;;;;;;19.42;82.04;94610.69;5068688;28;20321;-85
2022/05/28 01:40:57;;;;;;;16.15;7.43;;;;;;;19.32;82.85;94607.25;5065504;28;20750;-86
2022/05/28 01:43:33;;;;;;;16.42;7.05;;;;;;;19.35;83.16;94596.97;5063301;28;20589;-86
2022/05/28 01:46:04;;;;;;;20.00;8.40;;;;;;;19.37;82.77;94583.50;5068569;28;20262;-86
2022/05/28 01:48:35;;;;;;;20.40;7.50;;;;;;;19.50;82.64;94602.19;5070688;28;20209;-86
2022/05/28 01:51:14;;;;;;;18.13;6.75;;;;;;;19.54;82.69;94611.09;5067052;28;20599;-88
2022/05/28 01:56:47;;;;;;;15.35;7.25;;;;;;;19.59;82.78;94599.75;5033584;28;20298;-87
2022/05/28 01:59:23;;;;;;;17.10;7.30;;;;;;;19.60;82.49;94599.47;5067840;28;20204;-87
2022/05/28 02:01:58;;;;;;;15.13;7.38;;;;;;;19.69;82.40;94613.63;5065825;28;20197;-87
2022/05/28 02:04:31;;;;;;;14.23;7.07;;;;;;;19.64;81.84;94597.06;5066129;28;20290;-90
2022/05/28 02:07:03;;;;;;;19.95;7.20;;;;;;;19.65;81.92;94604.69;5070225;28;20206;-90
2022/05/28 02:09:39;;;;;;;19.77;7.57;;;;;;;19.65;81.45;94580.94;5065598;28;20694;-92
2022/05/28 02:12:24;;;;;;;12.55;6.82;;;;;;;19.76;80.71;94592.22;5063166;28;20221;-83
2022/05/28 02:15:08;;;;;;;16.33;6.93;;;;;;;19.76;78.98;94586.94;5065219;28;20401;-83
2022/05/28 02:17:53;;;;;;;13.50;6.40;;;;;;;19.72;77.88;94584.06;5066993;28;20331;-83
2022/05/28 02:20:32;;;;;;;9.32;6.00;;;;;;;19.50;78.35;94580.28;5063588;28;20703;-82
2022/05/28 02:23:16;;;;;;;14.38;5.82;;;;;;;19.48;78.99;94590.34;5066301;28;20258;-81
2022/05/28 02:25:56;;;;;;;13.63;6.13;;;;;;;19.50;79.01;94591.63;5068869;28;20228;-82
2022/05/28 02:28:30;;;;;;;21.50;6.30;;;;;;;19.51;78.04;94589.78;5066833;28;20243;-83
2022/05/28 02:31:03;;;;;;;9.95;5.55;;;;;;;19.56;77.46;94595.03;5068232;28;20932;-83
2022/05/28 02:33:36;;;;;;;14.80;5.80;;;;;;;19.59;76.97;94597.09;5061175;28;20205;-83
2022/05/28 02:36:12;;;;;;;22.05;5.80;;;;;;;19.64;76.64;94587.31;5063523;28;20201;-83
2022/05/28 02:38:47;;;;;;;11.93;5.93;;;;;;;19.84;75.42;94583.72;5065051;28;20295;-83
2022/05/28 02:41:21;;;;;;;9.90;5.30;;;;;;;19.85;73.77;94566.84;5065727;28;20205;-84
2022/05/28 02:43:52;;;;;;;10.90;5.00;;;;;;;19.96;73.35;94570.16;5063880;28;20229;-85
2022/05/28 02:46:27;;;;;;;15.90;5.60;;;;;;;20.01;73.19;94562.97;5064547;28;20605;-86
2022/05/28 02:49:03;;;;;;;14.00;5.30;;;;;;;20.11;73.39;94556.81;5065567;28;20288;-82
2022/05/28 02:51:34;;;;;;;13.55;4.55;;;;;;;20.14;72.21;94559.69;5065990;28;20205;-82
2022/05/28 02:54:08;;;;;;;13.57;5.28;;;;;;;19.99;71.34;94530.03;5066632;28;20679;-82
2022/05/28 02:56:42;;;;;;;11.90;5.13;;;;;;;20.29;71.03;94583.31;5069201;28;20205;-82
2022/05/28 02:59:17;;;;;;;9.02;4.90;;;;;;;20.34;69.51;94577.22;5067775;28;21092;-84
2022/05/28 03:01:49;;;;;;;9.60;5.00;;;;;;;20.30;69.83;94578.81;5063527;28;20200;-86
2022/05/28 03:04:21;;;;;;;13.88;5.15;;;;;;;20.32;70.30;94574.84;5066289;28;20217;-81
2022/05/28 03:06:55;;;;;;;10.80;4.53;;;;;;;20.37;70.62;94558.16;5062342;28;20217;-82
2022/05/28 03:09:25;;;;;;;11.85;5.05;;;;;;;20.40;69.90;94554.19;5061743;28;20439;-82
2022/05/28 03:11:58;;;;;;;14.80;4.40;;;;;;;20.49;69.69;94569.09;5066689;28;20213;-81
2022/05/28 03:14:29;;;;;;;11.40;4.68;;;;;;;20.46;70.27;94571.53;5064694;28;20997;-81
2022/05/28 03:17:04;;;;;;;9.73;5.00;;;;;;;20.50;70.01;94570.69;5066210;28;20210;-83
2022/05/28 03:19:35;;;;;;;12.55;5.10;;;;;;;20.52;69.54;94576.47;5066472;28;20559;-86
2022/05/28 03:22:12;;;;;;;11.27;5.03;;;;;;;20.56;69.72;94582.75;5068918;28;20205;-86
2022/05/28 03:24:44;;;;;;;16.40;5.45;;;;;;;20.54;69.48;94560.34;5066820;28;20224;-86
2022/05/28 03:27:20;;;;;;;14.43;5.55;;;;;;;20.56;69.85;94568.78;5067307;28;20212;-88
2022/05/28 03:29:51;;;;;;;10.43;5.05;;;;;;;20.48;70.13;94548.28;5064849;28;20664;-88
2022/05/28 03:32:25;;;;;;;13.43;4.90;;;;;;;20.56;70.15;94551.06;5064450;28;20871;-86
2022/05/28 03:34:59;;;;;;;11.25;4.60;;;;;;;20.69;69.75;94566.22;5062871;28;20299;-87
2022/05/28 03:37:31;;;;;;;12.07;5.00;;;;;;;20.71;69.45;94569.38;5063916;28;20205;-83
2022/05/28 03:40:05;;;;;;;15.77;5.32;;;;;;;20.77;69.32;94570.13;5066266;28;20284;-83
2022/05/28 03:42:39;;;;;;;12.10;5.30;;;;;;;20.81;69.34;94571.09;5065621;28;20270;-83
2022/05/28 03:45:13;;;;;;;15.50;5.43;;;;;;;20.81;68.43;94563.97;5066970;28;20229;-83
2022/05/28 03:47:48;;;;;;;12.48;5.10;;;;;;;20.81;68.18;94563.16;5068276;28;20200;-84
2022/05/28 03:50:21;;;;;;;11.75;4.85;;;;;;;20.83;68.92;94556.56;5066710;28;20579;-85
2022/05/28 03:52:52;;;;;;;17.40;5.38;;;;;;;20.66;69.28;94534.31;5064237;28;20209;-84
2022/05/28 03:55:21;;;;;;;11.23;5.50;;;;;;;20.82;69.11;94544.41;5055700;28;20650;-84
2022/05/28 03:57:57;;;;;;;10.90;4.82;;;;;;;20.85;69.56;94540.41;5062843;28;20300;-83
2022/05/28 04:00:29;;;;;;;12.18;5.22;;;;;;;20.87;69.53;94533.78;5065787;28;20232;-83
2022/05/28 04:03:09;;;;;;;15.90;5.28;;;;;;;20.97;69.95;94535.50;5066458;28;20202;-83
2022/05/28 04:05:44;;;;;;;14.73;5.40;;;;;;;20.98;70.16;94533.66;5066899;28;20201;-85
2022/05/28 04:08:18;;;;;;;16.75;5.68;;;;;;;21.07;69.20;94538.00;5066568;28;20258;-85
2022/05/28 04:10:51;;;;;;;17.83;6.07;;;;;;;21.04;68.54;94538.56;5067345;28;20209;-85
2022/05/28 04:13:19;;;;;;;16.02;5.28;;;;;;;21.01;67.51;94528.56;5067686;28;20288;-85
2022/05/28 04:15:58;;;;;;;15.70;5.20;;;;;;;21.00;67.55;94532.28;5066346;28;20205;-83
2022/05/28 04:18:34;;;;;;;13.63;5.60;;;;;;;21.15;69.07;94568.34;5066401;28;20668;-85
2022/05/28 04:21:06;;;;;;;17.85;6.38;;;;;;;20.92;69.95;94612.97;5067189;28;20251;-85
2022/05/28 04:23:40;;;;;;;22.23;5.30;;;;;;;20.64;69.63;94623.59;5064608;28;20238;-85
2022/05/28 04:26:15;;;;;;;13.07;4.85;;;;;;;20.42;69.50;94589.78;5067569;28;20310;-86
2022/05/28 04:28:46;;;;;;;16.25;4.60;;;;;;;20.22;69.99;94535.34;5071494;28;20722;-85
2022/05/28 04:31:18;;;;;;;15.98;4.75;;;;;;;20.42;69.76;94515.06;5070609;28;20205;-86
2022/05/28 04:33:48;;;;;;;10.57;4.65;;;;;;;20.39;70.01;94513.78;5071727;28;20205;-86
2022/05/28 04:36:20;;;;;;;11.45;4.72;;;;;;;20.42;69.65;94513.22;5067164;28;20205;-85
2022/05/28 04:38:59;;;;;;;13.80;4.82;;;;;;;20.54;69.70;94524.16;5070767;28;20262;-85
2022/05/28 04:41:34;;;;;;;13.48;4.90;;;;;;;20.56;69.96;94540.50;5073016;28;20200;-85
2022/05/28 04:44:07;;;;;;;20.98;5.65;;;;;;;20.48;69.47;94535.84;5065788;28;20701;-86
2022/05/28 04:46:40;;;;;;;16.08;4.93;;;;;;;20.58;69.74;94571.91;5070438;28;20213;-84
2022/05/28 04:49:13;;;;;;;15.90;5.32;;;;;;;20.42;70.52;94573.16;5068322;28;20220;-85
2022/05/28 04:51:50;;;;;;;21.13;4.90;;;;;;;20.36;71.35;94573.22;5067104;28;20209;-84
2022/05/28 04:54:20;;;;;;;16.80;5.00;;;;;;;20.46;71.22;94571.53;5064387;28;20272;-83
2022/05/28 04:56:53;;;;;;;15.10;5.63;;;;;;;20.16;72.03;94544.38;5064143;28;20206;-90
2022/05/28 04:59:27;;;;;;;16.33;5.35;;;;;;;20.28;72.76;94570.41;5074719;28;20194;-86
2022/05/28 05:02:01;;;;;;;11.52;5.13;;;;;;;20.35;73.24;94571.63;5064797;28;20229;-84
2022/05/28 05:04:37;;;;;;;19.65;5.72;;;;;;;20.33;74.77;94583.53;5071548;28;20225;-84
2022/05/28 05:07:13;;;;;;;11.40;5.15;;;;;;;20.22;75.97;94582.06;5070510;28;20291;-85
2022/05/28 05:09:47;;;;;;;13.43;5.50;;;;;;;20.14;77.43;94587.94;5070016;28;20212;-84
2022/05/28 05:12:21;;;;;;;22.42;5.97;;;;;;;19.97;78.46;94583.06;5068603;28;20215;-84
2022/05/28 05:14:53;;;;;;;14.95;5.60;;;;;;;19.97;78.87;94585.69;5066593;28;20280;-85
2022/05/28 05:17:25;;;;;;;14.82;5.35;;;;;;;19.86;78.71;94568.38;5068196;28;20212;-84
2022/05/28 05:20:01;;;;;;;17.10;5.90;;;;;;;19.85;78.97;94577.38;5067630;28;20220;-81
2022/05/28 05:22:32;;;;;;;17.95;5.78;;;;;;;19.88;78.81;94584.75;5067577;28;20197;-82
2022/05/28 05:25:07;;;;;;;14.35;5.78;;;;;;;19.95;78.17;94587.84;5065256;28;20209;-83
2022/05/28 05:27:39;;;;;;;18.42;5.60;;;;;;;20.04;77.55;94593.28;5066465;28;20205;-75
2022/05/28 05:30:12;;;;;;;12.88;5.60;;;;;;;20.05;78.03;94603.59;5065444;28;20322;-73
2022/05/28 05:32:47;;;;;;;23.00;6.32;;;;;;;20.14;78.84;94607.22;5066710;28;21294;-72
2022/05/28 05:35:21;;;;;;;24.25;5.85;;;;;;;20.14;79.85;94615.13;5067416;28;20562;-73
2022/05/28 05:37:56;;;;;;;15.13;5.43;;;;;;;20.22;80.22;94605.81;5065781;28;20209;-73
2022/05/28 05:40:28;;;;;;;20.33;5.82;;;;;;;20.30;80.27;94608.66;5064767;28;20204;-74
2022/05/28 05:43:03;;;;;;;16.70;5.97;;;;;;;20.46;79.29;94608.50;5063781;28;20324;-73
2022/05/28 05:45:37;;;;;;;15.15;5.50;;;;;;;20.50;79.90;94591.03;5053047;28;20722;-73
2022/05/28 05:48:10;;;;;;;17.80;6.30;;;;;;;20.58;80.11;94591.19;5063832;28;20232;-74
2022/05/28 05:50:43;;;;;;;15.10;6.20;;;;;;;20.66;79.77;94589.78;5064386;28;20321;-72
2022/05/28 05:53:13;;;;;;;17.45;7.07;;;;;;;20.68;79.22;94572.59;5064505;28;20296;-74
2022/05/28 05:55:48;;;;;;;14.40;6.75;;;;;;;20.73;78.63;94582.31;5063117;28;20205;-73
2022/05/28 05:58:17;;;;;;;15.07;6.10;;;;;;;20.78;78.80;94580.38;5066010;28;20208;-73
2022/05/28 06:00:49;;;;;;;13.00;6.57;;;;;;;20.87;78.84;94575.25;5066857;28;20603;-73
2022/05/28 06:03:22;;;;;;;13.70;6.60;;;;;;;20.94;77.88;94573.84;5064490;28;20576;-73
2022/05/28 06:06:02;;;;;;;16.35;6.20;;;;;;;21.03;75.88;94570.56;5061749;28;20620;-73
2022/05/28 06:08:34;;;;;;;13.20;6.20;;;;;;;21.04;75.26;94566.88;5063516;28;20248;-73
2022/05/28 06:11:05;;;;;;;20.30;6.38;;;;;;;21.14;74.35;94566.75;5064280;28;20201;-74
2022/05/28 06:13:36;;;;;;;12.05;5.63;;;;;;;21.16;73.76;94565.38;5064119;28;20204;-73
2022/05/28 06:16:09;;;;;;;17.20;5.70;;;;;;;21.17;70.38;94563.53;5064827;28;20258;-73
2022/05/28 06:18:43;;;;;;;13.77;5.45;;;;;;;21.17;71.10;94560.88;5063470;28;20231;-73
2022/05/28 06:21:23;;;;;;;14.98;5.55;;;;;;;21.23;71.63;94557.09;5064032;28;20328;-73
2022/05/28 06:23:57;;;;;;;12.65;5.40;;;;;;;21.36;71.04;94554.53;5063239;28;21154;-73
2022/05/28 06:26:29;;;;;;;14.30;5.78;;;;;;;21.47;70.02;94555.19;5065224;28;20208;-75
2022/05/28 06:29:01;;;;;;;15.10;5.95;;;;;;;21.63;70.01;94539.84;5063848;28;20280;-74
2022/05/28 06:31:34;;;;;;;13.73;5.63;;;;;;;21.76;69.73;94539.09;5062469;28;20688;-75
2022/05/28 06:34:14;;;;;;;14.43;5.68;;;;;;;21.88;70.08;94537.59;5063260;28;20198;-73
2022/05/28 06:36:49;;;;;;;15.52;6.22;;;;;;;22.00;70.13;94545.06;5063703;28;20211;-73
2022/05/28 06:39:24;;;;;;;11.55;5.80;;;;;;;22.09;70.36;94550.47;5063876;28;20207;-72
2022/05/28 06:41:59;;;;;;;17.50;6.30;;;;;;;22.11;69.95;94543.78;5062030;28;20286;-74
2022/05/28 06:44:29;;;;;;;13.90;6.28;;;;;;;22.19;69.05;94534.41;5043415;28;20241;-72
2022/05/28 06:47:01;;;;;;;14.02;6.55;;;;;;;22.24;69.51;94529.00;5044037;28;20225;-73
2022/05/28 06:49:35;;;;;;;20.80;7.07;;;;;;;22.35;69.55;94528.53;5041769;28;20214;-72
2022/05/28 06:52:08;;;;;;;18.83;6.60;;;;;;;22.36;70.74;94521.38;5044183;28;20206;-72
2022/05/28 06:54:40;;;;;;;18.70;6.57;;;;;;;22.45;70.67;94511.66;5046052;28;20255;-73
2022/05/28 06:57:14;;;;;;;19.67;6.97;;;;;;;22.57;70.01;94509.28;5043849;28;20209;-72
2022/05/28 06:59:50;;;;;;;14.30;6.57;;;;;;;22.58;69.67;94519.59;5043204;28;20216;-72
2022/05/28 07:02:22;;;;;;;20.27;6.82;;;;;;;22.57;68.66;94506.63;5044066;28;20198;-72
2022/05/28 07:04:56;;;;;;;14.45;7.55;;;;;;;22.71;68.89;94506.66;5043869;28;20255;-73
2022/05/28 07:07:29;;;;;;;16.48;6.72;;;;;;;22.77;68.53;94502.81;5042082;28;20216;-74
2022/05/28 07:10:03;;;;;;;15.52;6.57;;;;;;;22.82;67.74;94492.91;5043735;28;20644;-78
2022/05/28 07:12:38;;;;;;;13.32;6.35;;;;;;;22.90;70.28;94491.41;5044552;28;20198;-84
2022/05/28 07:15:11;;;;;;;15.13;6.88;;;;;;;23.07;68.88;94484.38;5045573;28;20706;-83
2022/05/28 07:17:45;;;;;;;20.13;7.13;;;;;;;23.16;68.91;94485.22;5046255;28;20216;-82
2022/05/28 07:20:21;;;;;;;15.70;6.63;;;;;;;23.22;67.19;94493.06;5045359;28;20260;-76
2022/05/28 07:22:55;;;;;;;22.23;7.03;;;;;;;23.26;66.20;94484.19;5045000;28;20201;-75
2022/05/28 07:25:27;;;;;;;16.67;7.32;;;;;;;23.34;66.15;94488.00;5042502;28;20224;-77
2022/05/28 07:28:00;;;;;;;11.68;7.00;;;;;;;23.41;66.54;94483.88;5042508;28;20208;-75
2022/05/28 07:30:34;;;;;;;11.88;7.25;;;;;;;23.50;66.73;94484.72;5042247;28;20202;-75
2022/05/28 07:33:12;;;;;;;12.98;6.28;;;;;;;23.57;65.34;94476.34;5041899;28;20205;-76
2022/05/28 07:35:45;;;;;;;33.53;7.43;;;;;;;23.65;65.58;94473.72;5042352;28;20213;-74
2022/05/28 07:38:20;;;;;;;13.32;6.70;;;;;;;23.76;65.36;94471.59;5043035;28;20201;-74
2022/05/28 07:40:51;;;;;;;16.08;6.32;;;;;;;23.81;62.50;94473.34;5042804;28;20197;-76
2022/05/28 07:43:25;;;;;;;16.10;6.07;;;;;;;23.88;61.21;94482.44;5049928;28;20263;-76
2022/05/28 07:45:57;;;;;;;17.00;5.97;;;;;;;23.82;61.30;94478.34;5062752;28;20233;-75
2022/05/28 07:48:30;;;;;;;12.50;6.80;;;;;;;24.01;61.47;94478.91;5064223;28;20209;-75
2022/05/28 07:51:01;;;;;;;19.85;6.13;;;;;;;24.12;61.45;94472.28;5066602;28;20292;-86
2022/05/28 07:53:38;;;;;;;16.58;6.22;;;;;;;24.31;59.80;94474.69;5064321;28;20276;-85
2022/05/28 07:56:10;;;;;;;12.20;5.18;;;;;;;24.45;57.83;94474.56;5060688;28;20197;-87
2022/05/28 07:58:44;;;;;;;10.55;5.93;;;;;;;24.38;57.90;94461.75;5051786;28;20194;-86
2022/05/28 08:01:24;;;;;;;11.93;5.85;;;;;;;24.56;58.09;94471.31;5061514;28;20180;-86
2022/05/28 08:03:59;;;;;;;9.52;5.80;;;;;;;24.68;59.05;94468.81;5056173;28;20209;-86
2022/05/28 08:06:36;;;;;;;23.23;6.60;;;;;;;24.72;57.46;94447.72;5055432;28;20595;-86
2022/05/28 08:09:13;;;;;;;18.42;6.97;;;;;;;24.93;57.32;94458.56;5059034;28;20215;-85
2022/05/28 08:11:52;;;;;;;11.25;6.32;;;;;;;24.92;57.50;94454.34;5059395;28;20217;-77
2022/05/28 08:14:25;;;;;;;16.42;6.60;;;;;;;25.09;57.50;94454.34;5058151;28;20887;-78
2022/05/28 08:16:57;;;;;;;18.75;7.15;;;;;;;25.19;60.07;94456.69;5059979;28;20205;-83
2022/05/28 08:19:30;;;;;;;20.00;6.95;;;;;;;25.23;61.24;94449.63;5059987;28;20212;-86
2022/05/28 08:24:49;;;;;;;18.00;7.60;;;;;;;25.40;60.53;94458.38;5061100;28;20220;-85
2022/05/28 08:27:23;;;;;;;16.95;7.10;;;;;;;25.40;59.68;94450.41;5059634;28;20225;-80
2022/05/28 08:29:54;;;;;;;18.25;6.22;;;;;;;25.40;60.04;94452.28;5057336;28;20220;-79
2022/05/28 08:32:26;;;;;;;10.77;6.35;;;;;;;25.36;60.63;94454.81;5056313;28;20569;-82
2022/05/28 08:34:59;;;;;;;17.25;7.05;;;;;;;25.42;60.63;94446.66;5059168;28;20650;-79
2022/05/28 08:37:34;;;;;;;14.07;7.05;;;;;;;25.48;61.72;94451.53;5058063;28;20206;-76
2022/05/28 08:40:08;;;;;;;12.95;7.00;;;;;;;25.42;63.06;94445.53;5057225;28;20201;-77
2022/05/28 08:42:38;;;;;;;17.38;7.30;;;;;;;25.55;61.39;94448.38;5058007;28;20272;-83
2022/05/28 08:45:15;;;;;;;14.93;6.20;;;;;;;25.58;60.24;94445.88;5061970;28;20213;-81
2022/05/28 08:47:52;;;;;;;16.88;6.28;;;;;;;25.54;59.04;94450.25;5059464;28;21344;-81
2022/05/28 08:50:31;;;;;;;16.83;6.32;;;;;;;25.64;58.39;94446.47;5056889;28;20290;-80
2022/05/28 08:53:12;;;;;;;17.98;6.80;;;;;;;25.68;59.45;94437.56;5056694;28;20279;-81
2022/05/28 08:55:50;;;;;;;12.10;5.97;;;;;;;25.78;59.54;94431.88;5056673;28;21228;-83
2022/05/28 08:58:25;;;;;;;18.30;6.78;;;;;;;25.97;56.96;94444.81;5056403;28;20254;-82
2022/05/28 09:01:03;;;;;;;14.75;6.57;;;;;;;26.02;57.18;94443.84;5053949;28;20743;-83
2022/05/28 09:03:54;;;;;;;16.23;6.68;;;;;;;26.02;58.63;94441.19;5058175;28;20284;-83
2022/05/28 09:06:34;;;;;;;17.52;6.75;;;;;;;26.13;58.54;94445.06;5057516;28;20224;-82
2022/05/28 09:09:10;;;;;;;15.48;6.30;;;;;;;26.17;57.01;94435.38;5059098;28;20205;-82
2022/05/28 09:11:55;;;;;;;15.73;6.70;;;;;;;26.24;56.45;94438.28;5056767;28;20265;-82
2022/05/28 09:14:31;;;;;;;16.17;6.25;;;;;;;26.27;56.70;94429.66;5059592;28;20251;-81
2022/05/28 09:17:10;;;;;;;15.07;6.53;;;;;;;26.39;55.91;94422.53;5057567;28;20209;-81
2022/05/28 09:19:48;;;;;;;17.92;6.32;;;;;;;26.53;55.47;94416.97;5059834;28;20212;-76
2022/05/28 09:22:21;;;;;;;18.30;6.05;;;;;;;26.67;54.34;94416.72;5061112;28;20205;-76
2022/05/28 09:24:53;;;;;;;22.05;6.80;;;;;;;26.76;54.16;94410.22;5062935;28;20201;-75
2022/05/28 09:27:49;;;;;;;20.52;6.32;;;;;;;26.90;53.47;94410.78;5060860;28;20415;-75
2022/05/28 09:30:36;;;;;;;15.35;6.28;;;;;;;26.99;52.51;94410.69;5061461;28;20282;-77
2022/05/28 09:33:26;;;;;;;22.42;7.05;;;;;;;26.86;52.65;94409.09;5061685;28;20193;-76
2022/05/28 09:36:04;;;;;;;19.48;6.18;;;;;;;26.89;52.92;94408.44;5061220;28;20212;-76
2022/05/28 09:38:50;;;;;;;21.38;8.52;;;;;;;27.03;52.10;94404.41;5059061;28;20209;-78
2022/05/28 09:41:59;;;;;;;24.15;9.18;;;;;;;27.15;52.11;94397.53;5062362;28;20201;-84
2022/05/28 09:44:53;;;;;;;20.65;7.20;;;;;;;27.20;51.23;94387.44;5061825;28;20604;-83
2022/05/28 09:47:24;;;;;;;15.00;6.07;;;;;;;27.39;51.25;94373.59;5062884;28;20201;-82
2022/05/28 09:50:00;;;;;;;18.50;8.23;;;;;;;27.58;50.63;94384.56;5062993;28;20296;-82
2022/05/28 09:54:16;;;;;;;17.75;7.07;;;;;;;27.58;50.58;94374.69;5062803;28;20237;-82
2022/05/28 09:55:24;;;;;;;24.25;13.60;;;;;;;27.80;51.27;94378.81;5060069;28;20198;-83
2022/05/28 09:58:01;;;;;;;21.02;8.55;;;;;;;27.92;50.18;94381.50;5059710;28;20260;-82
2022/05/28 10:00:37;;;;;;;46.20;8.95;;;;;;;27.98;50.31;94376.72;5062421;28;20236;-83
2022/05/28 10:06:07;;;;;;;17.85;6.85;;;;;;;27.99;49.68;94378.28;5059565;28;20344;-83
2022/05/28 10:08:42;;;;;;;22.38;7.28;;;;;;;27.93;49.78;94372.38;5061408;28;20720;-82
2022/05/28 10:11:20;;;;;;;20.23;6.68;;;;;;;27.97;49.88;94372.47;5058998;28;20719;-76
2022/05/28 10:13:56;;;;;;;18.83;6.88;;;;;;;27.99;49.60;94371.06;5061138;28;20207;-77
2022/05/28 10:16:46;;;;;;;11.90;6.07;;;;;;;28.00;49.54;94364.56;5059974;28;20707;-79
2022/05/28 10:19:33;;;;;;;17.23;6.68;;;;;;;28.08;49.68;94361.03;5058971;28;20780;-79
2022/05/28 10:22:09;;;;;;;18.23;6.28;;;;;;;28.10;49.48;94356.16;5057608;28;20293;-76
2022/05/28 10:24:51;;;;;;;12.88;6.50;;;;;;;28.14;49.76;94351.69;5058788;28;20221;-75
2022/05/28 10:27:37;;;;;;;14.38;6.75;;;;;;;28.24;49.30;94345.09;5061237;28;20228;-76
2022/05/28 10:30:12;;;;;;;20.50;6.28;;;;;;;28.38;48.68;94342.06;5059622;28;20204;-76
2022/05/28 10:32:51;;;;;;;18.25;6.25;;;;;;;28.45;48.54;94340.41;5059871;28;20211;-77
2022/05/28 10:35:28;;;;;;;24.13;7.20;;;;;;;28.50;48.66;94336.69;5058880;28;20212;-77
2022/05/28 10:38:13;;;;;;;20.20;6.80;;;;;;;28.59;48.39;94334.69;5058239;28;20312;-76
2022/05/28 10:40:55;;;;;;;404.13;39.50;;;;;;;28.52;47.77;94329.88;5058035;28;20216;-77
2022/05/28 10:43:30;;;;;;;409.30;39.92;;;;;;;28.61;47.37;94332.44;5055733;28;20290;-78
2022/05/28 10:46:11;;;;;;;138.80;19.98;;;;;;;28.72;47.51;94322.84;5060743;28;20221;-79
2022/05/28 10:49:02;;;;;;;25.80;7.05;;;;;;;28.97;47.00;94323.53;5055540;28;20316;-81
2022/05/28 10:51:46;;;;;;;22.90;6.97;;;;;;;29.41;46.08;94324.34;5061113;28;20211;-80
2022/05/28 10:54:32;;;;;;;19.35;6.50;;;;;;;29.79;45.55;94325.28;5058632;28;20204;-80
2022/05/28 10:57:21;;;;;;;27.05;10.32;;;;;;;30.01;44.02;94325.81;5058091;28;20202;-79
2022/05/28 11:00:08;;;;;;;21.73;7.18;;;;;;;30.50;43.67;94329.66;5060137;28;20753;-81
2022/05/28 11:03:33;;;;;;;20.08;6.97;;;;;;;30.64;42.36;94327.25;5058454;28;20274;-79
2022/05/28 11:06:31;;;;;;;23.42;6.97;;;;;;;30.78;42.44;94316.03;5041863;28;20593;-79
2022/05/28 11:09:12;;;;;;;33.83;8.30;;;;;;;30.65;43.11;94320.00;5059954;28;20201;-79
2022/05/28 11:12:04;;;;;;;16.98;6.90;;;;;;;30.42;43.45;94314.50;5059123;28;20232;-80
2022/05/28 11:15:09;;;;;;;26.17;8.45;;;;;;;30.25;43.94;94306.81;5056283;28;20601;-79
2022/05/28 11:18:02;;;;;;;20.63;7.15;;;;;;;30.00;44.29;94308.97;5058496;28;20213;-79
2022/05/28 11:20:46;;;;;;;27.55;6.80;;;;;;;29.79;43.71;94303.84;5059586;28;20779;-78
2022/05/28 11:23:37;;;;;;;18.38;7.18;;;;;;;29.50;45.34;94290.88;5057252;28;20675;-79
2022/05/28 11:26:19;;;;;;;15.57;6.63;;;;;;;29.40;45.77;94283.38;5058975;28;20214;-79
2022/05/28 11:29:16;;;;;;;23.85;6.95;;;;;;;29.32;45.70;94291.59;5056555;28;20301;-80
2022/05/28 11:31:53;;;;;;;21.35;6.95;;;;;;;29.15;45.72;94284.59;5054845;28;20205;-79
2022/05/28 11:34:29;;;;;;;23.27;7.50;;;;;;;28.97;45.58;94283.38;5059125;28;20284;-79
2022/05/28 11:37:08;;;;;;;28.45;7.78;;;;;;;28.84;45.41;94284.53;5058955;28;20197;-79
2022/05/28 11:39:57;;;;;;;20.20;8.00;;;;;;;28.72;46.18;94276.59;5056568;28;20281;-79
2022/05/28 11:42:46;;;;;;;18.75;7.40;;;;;;;28.66;45.85;94276.03;5057298;28;20232;-80
2022/05/28 11:45:25;;;;;;;22.15;7.72;;;;;;;28.56;46.28;94268.47;5057076;28;20270;-79
2022/05/28 11:48:03;;;;;;;21.60;9.80;;;;;;;28.47;46.54;94275.84;5057619;28;20305;-79
2022/05/28 11:53:39;;;;;;;17.15;6.80;;;;;;;28.23;46.97;94274.03;5057168;28;20207;-80
2022/05/28 11:56:15;;;;;;;19.83;7.50;;;;;;;28.12;46.48;94271.03;5055628;28;20197;-79
2022/05/28 11:58:51;;;;;;;18.33;6.78;;;;;;;28.03;46.67;94264.22;5056644;28;20296;-80
2022/05/28 12:01:28;;;;;;;19.17;7.18;;;;;;;27.92;47.69;94268.47;5059474;28;20211;-80
2022/05/28 12:04:01;;;;;;;17.85;6.47;;;;;;;27.79;47.66;94251.69;5058443;28;20303;-80
2022/05/28 12:06:37;;;;;;;15.90;6.82;;;;;;;27.64;47.63;94251.59;5060447;28;20305;-80
2022/05/28 12:09:23;;;;;;;19.00;7.07;;;;;;;27.47;47.65;94249.94;5058771;28;20561;-81
2022/05/28 12:12:15;;;;;;;17.85;8.13;;;;;;;27.28;48.82;94242.41;5061749;28;20197;-80
2022/05/28 12:14:51;;;;;;;20.65;10.88;;;;;;;27.09;48.96;94244.84;5060963;28;20253;-81
2022/05/28 12:17:33;;;;;;;18.05;6.75;;;;;;;27.01;49.41;94245.72;5059130;28;20205;-79
2022/05/28 12:20:10;;;;;;;24.80;10.98;;;;;;;26.91;49.60;94243.47;5057798;28;20718;-79